sensor_id;sensor_type;location;lat;lon;timestamp;P1;durP1;ratioP1;P2;durP2;ratioP2
10617;SDS011;5356;43.526;26.534;2022-12-29T00:02:02;8.73;;;3.08;;
10617;SDS011;5356;43.526;26.534;2022-12-29T00:04:28;8.73;;;4.30;;
10617;SDS011;5356;43.526;26.534;2022-12-29T00:06:53;8.10;;;3.83;;
10617;SDS011;5356;43.526;26.534;2022-12-29T00:09:19;7.88;;;3.97;;
10617;SDS011;5356;43.526;26.534;2022-12-29T00:11:45;7.70;;;4.07;;
10617;SDS011;5356;43.526;26.534;2022-12-29T00:14:11;10.85;;;3.95;;
10617;SDS011;5356;43.526;26.534;2022-12-29T00:16:56;7.90;;;3.45;;
10617;SDS011;5356;43.526;26.534;2022-12-29T00:19:22;7.32;;;3.83;;
10617;SDS011;5356;43.526;26.534;2022-12-29T00:22:11;5.53;;;2.40;;
10617;SDS011;5356;43.526;26.534;2022-12-29T00:24:57;8.25;;;3.60;;
10617;SDS011;5356;43.526;26.534;2022-12-29T00:30:25;6.55;;;3.33;;
10617;SDS011;5356;43.526;26.534;2022-12-29T00:35:58;6.00;;;2.97;;
10617;SDS011;5356;43.526;26.534;2022-12-29T00:38:31;7.07;;;3.30;;
10617;SDS011;5356;43.526;26.534;2022-12-29T00:41:19;7.22;;;3.53;;
10617;SDS011;5356;43.526;26.534;2022-12-29T00:46:35;5.35;;;2.75;;
10617;SDS011;5356;43.526;26.534;2022-12-29T00:49:03;9.38;;;3.85;;
10617;SDS011;5356;43.526;26.534;2022-12-29T00:51:48;8.98;;;3.30;;
10617;SDS011;5356;43.526;26.534;2022-12-29T00:54:14;8.65;;;3.22;;
10617;SDS011;5356;43.526;26.534;2022-12-29T00:56:40;5.40;;;2.90;;
10617;SDS011;5356;43.526;26.534;2022-12-29T00:59:07;6.32;;;3.13;;
10617;SDS011;5356;43.526;26.534;2022-12-29T01:01:34;5.82;;;2.85;;
10617;SDS011;5356;43.526;26.534;2022-12-29T01:04:01;7.40;;;3.28;;
10617;SDS011;5356;43.526;26.534;2022-12-29T01:06:27;7.22;;;2.65;;
10617;SDS011;5356;43.526;26.534;2022-12-29T01:08:52;8.15;;;3.53;;
10617;SDS011;5356;43.526;26.534;2022-12-29T01:11:36;4.78;;;3.17;;
10617;SDS011;5356;43.526;26.534;2022-12-29T01:14:02;8.15;;;3.50;;
10617;SDS011;5356;43.526;26.534;2022-12-29T01:16:28;10.05;;;3.80;;
10617;SDS011;5356;43.526;26.534;2022-12-29T01:18:54;4.63;;;2.65;;
10617;SDS011;5356;43.526;26.534;2022-12-29T01:21:20;7.03;;;3.75;;
10617;SDS011;5356;43.526;26.534;2022-12-29T01:23:45;11.43;;;5.18;;
10617;SDS011;5356;43.526;26.534;2022-12-29T01:26:12;11.68;;;6.65;;
10617;SDS011;5356;43.526;26.534;2022-12-29T01:28:39;8.18;;;5.95;;
10617;SDS011;5356;43.526;26.534;2022-12-29T01:31:06;10.75;;;5.97;;
10617;SDS011;5356;43.526;26.534;2022-12-29T01:33:33;8.80;;;4.18;;
10617;SDS011;5356;43.526;26.534;2022-12-29T01:36:02;7.30;;;4.45;;
10617;SDS011;5356;43.526;26.534;2022-12-29T01:38:29;11.10;;;4.38;;
10617;SDS011;5356;43.526;26.534;2022-12-29T01:40:55;5.95;;;3.70;;
10617;SDS011;5356;43.526;26.534;2022-12-29T01:43:21;10.57;;;4.03;;
10617;SDS011;5356;43.526;26.534;2022-12-29T01:45:50;8.63;;;3.63;;
10617;SDS011;5356;43.526;26.534;2022-12-29T01:48:18;9.18;;;4.07;;
10617;SDS011;5356;43.526;26.534;2022-12-29T01:50:51;7.85;;;2.92;;
10617;SDS011;5356;43.526;26.534;2022-12-29T01:53:20;6.75;;;3.42;;
10617;SDS011;5356;43.526;26.534;2022-12-29T01:55:50;6.65;;;3.47;;
10617;SDS011;5356;43.526;26.534;2022-12-29T01:58:19;9.85;;;3.33;;
10617;SDS011;5356;43.526;26.534;2022-12-29T02:00:48;12.50;;;6.13;;
10617;SDS011;5356;43.526;26.534;2022-12-29T02:03:13;5.90;;;4.32;;
10617;SDS011;5356;43.526;26.534;2022-12-29T02:05:46;10.20;;;4.95;;
10617;SDS011;5356;43.526;26.534;2022-12-29T02:08:18;7.93;;;3.30;;
10617;SDS011;5356;43.526;26.534;2022-12-29T02:10:47;6.82;;;4.25;;
10617;SDS011;5356;43.526;26.534;2022-12-29T02:13:16;5.70;;;3.22;;
10617;SDS011;5356;43.526;26.534;2022-12-29T02:33:25;13.38;;;5.65;;
10617;SDS011;5356;43.526;26.534;2022-12-29T02:36:13;9.57;;;4.53;;
10617;SDS011;5356;43.526;26.534;2022-12-29T02:41:23;9.30;;;4.18;;
10617;SDS011;5356;43.526;26.534;2022-12-29T02:44:12;7.75;;;4.45;;
10617;SDS011;5356;43.526;26.534;2022-12-29T02:49:28;6.05;;;2.88;;
10617;SDS011;5356;43.526;26.534;2022-12-29T02:52:05;5.63;;;2.72;;
10617;SDS011;5356;43.526;26.534;2022-12-29T02:54:44;6.50;;;2.38;;
10617;SDS011;5356;43.526;26.534;2022-12-29T03:00:10;6.97;;;2.60;;
10617;SDS011;5356;43.526;26.534;2022-12-29T03:10:41;8.50;;;2.95;;
10617;SDS011;5356;43.526;26.534;2022-12-29T03:21:42;9.73;;;5.82;;
10617;SDS011;5356;43.526;26.534;2022-12-29T03:24:34;9.52;;;4.03;;
10617;SDS011;5356;43.526;26.534;2022-12-29T03:27:04;10.65;;;4.47;;
10617;SDS011;5356;43.526;26.534;2022-12-29T03:29:41;9.85;;;5.03;;
10617;SDS011;5356;43.526;26.534;2022-12-29T03:32:11;10.13;;;4.15;;
10617;SDS011;5356;43.526;26.534;2022-12-29T03:34:40;9.75;;;4.10;;
10617;SDS011;5356;43.526;26.534;2022-12-29T03:37:16;9.20;;;4.85;;
10617;SDS011;5356;43.526;26.534;2022-12-29T03:39:47;10.90;;;6.13;;
10617;SDS011;5356;43.526;26.534;2022-12-29T03:42:14;8.70;;;5.80;;
10617;SDS011;5356;43.526;26.534;2022-12-29T03:44:54;15.10;;;6.00;;
10617;SDS011;5356;43.526;26.534;2022-12-29T03:47:21;9.27;;;3.97;;
10617;SDS011;5356;43.526;26.534;2022-12-29T03:49:59;12.63;;;4.28;;
10617;SDS011;5356;43.526;26.534;2022-12-29T03:52:28;10.20;;;4.32;;
10617;SDS011;5356;43.526;26.534;2022-12-29T03:54:57;10.32;;;6.00;;
10617;SDS011;5356;43.526;26.534;2022-12-29T03:57:25;11.35;;;6.15;;
10617;SDS011;5356;43.526;26.534;2022-12-29T03:59:51;11.32;;;5.78;;
10617;SDS011;5356;43.526;26.534;2022-12-29T04:02:16;10.68;;;5.38;;
10617;SDS011;5356;43.526;26.534;2022-12-29T04:04:47;10.05;;;4.85;;
10617;SDS011;5356;43.526;26.534;2022-12-29T04:07:13;9.40;;;4.65;;
10617;SDS011;5356;43.526;26.534;2022-12-29T04:09:38;5.28;;;4.05;;
10617;SDS011;5356;43.526;26.534;2022-12-29T04:12:04;6.57;;;3.85;;
10617;SDS011;5356;43.526;26.534;2022-12-29T04:14:29;8.50;;;3.75;;
10617;SDS011;5356;43.526;26.534;2022-12-29T04:16:55;9.18;;;3.80;;
10617;SDS011;5356;43.526;26.534;2022-12-29T04:19:30;11.32;;;4.10;;
10617;SDS011;5356;43.526;26.534;2022-12-29T04:21:55;13.20;;;4.18;;
10617;SDS011;5356;43.526;26.534;2022-12-29T04:24:21;8.10;;;4.43;;
10617;SDS011;5356;43.526;26.534;2022-12-29T04:26:46;14.55;;;6.40;;
10617;SDS011;5356;43.526;26.534;2022-12-29T04:29:12;19.58;;;6.57;;
10617;SDS011;5356;43.526;26.534;2022-12-29T04:31:37;14.68;;;7.55;;
10617;SDS011;5356;43.526;26.534;2022-12-29T04:34:03;12.98;;;5.90;;
10617;SDS011;5356;43.526;26.534;2022-12-29T04:36:28;14.52;;;5.50;;
10617;SDS011;5356;43.526;26.534;2022-12-29T04:38:54;14.25;;;4.97;;
10617;SDS011;5356;43.526;26.534;2022-12-29T04:41:19;11.80;;;4.43;;
10617;SDS011;5356;43.526;26.534;2022-12-29T04:43:56;10.23;;;3.95;;
10617;SDS011;5356;43.526;26.534;2022-12-29T04:46:24;9.02;;;4.28;;
10617;SDS011;5356;43.526;26.534;2022-12-29T04:48:50;10.57;;;4.00;;
10617;SDS011;5356;43.526;26.534;2022-12-29T04:51:15;11.30;;;5.20;;
10617;SDS011;5356;43.526;26.534;2022-12-29T04:53:41;13.32;;;6.05;;
10617;SDS011;5356;43.526;26.534;2022-12-29T04:56:06;16.17;;;7.88;;
10617;SDS011;5356;43.526;26.534;2022-12-29T04:58:32;12.52;;;6.15;;
10617;SDS011;5356;43.526;26.534;2022-12-29T05:00:59;11.10;;;5.03;;
10617;SDS011;5356;43.526;26.534;2022-12-29T05:03:24;12.23;;;5.70;;
10617;SDS011;5356;43.526;26.534;2022-12-29T05:05:52;13.02;;;5.90;;
10617;SDS011;5356;43.526;26.534;2022-12-29T05:08:19;13.50;;;6.35;;
10617;SDS011;5356;43.526;26.534;2022-12-29T05:10:45;19.83;;;8.95;;
10617;SDS011;5356;43.526;26.534;2022-12-29T05:13:11;15.82;;;8.55;;
10617;SDS011;5356;43.526;26.534;2022-12-29T05:15:39;13.32;;;6.90;;
10617;SDS011;5356;43.526;26.534;2022-12-29T05:18:15;18.67;;;6.70;;
10617;SDS011;5356;43.526;26.534;2022-12-29T05:20:41;11.60;;;6.30;;
10617;SDS011;5356;43.526;26.534;2022-12-29T05:23:07;19.25;;;7.05;;
10617;SDS011;5356;43.526;26.534;2022-12-29T05:25:32;16.70;;;6.18;;
10617;SDS011;5356;43.526;26.534;2022-12-29T05:27:58;18.30;;;7.38;;
10617;SDS011;5356;43.526;26.534;2022-12-29T05:30:23;21.30;;;8.05;;
10617;SDS011;5356;43.526;26.534;2022-12-29T05:32:49;21.50;;;8.73;;
10617;SDS011;5356;43.526;26.534;2022-12-29T05:35:14;14.63;;;7.18;;
10617;SDS011;5356;43.526;26.534;2022-12-29T05:37:40;13.65;;;7.05;;
10617;SDS011;5356;43.526;26.534;2022-12-29T05:40:06;18.92;;;8.43;;
10617;SDS011;5356;43.526;26.534;2022-12-29T05:42:32;21.40;;;11.93;;
10617;SDS011;5356;43.526;26.534;2022-12-29T05:44:57;23.13;;;11.60;;
10617;SDS011;5356;43.526;26.534;2022-12-29T05:47:23;26.73;;;11.20;;
10617;SDS011;5356;43.526;26.534;2022-12-29T05:49:48;38.38;;;18.15;;
10617;SDS011;5356;43.526;26.534;2022-12-29T05:55:11;21.45;;;11.73;;
10617;SDS011;5356;43.526;26.534;2022-12-29T05:57:37;39.60;;;16.27;;
10617;SDS011;5356;43.526;26.534;2022-12-29T06:00:03;30.63;;;14.75;;
10617;SDS011;5356;43.526;26.534;2022-12-29T06:02:30;48.45;;;21.15;;
10617;SDS011;5356;43.526;26.534;2022-12-29T06:04:55;38.60;;;17.73;;
10617;SDS011;5356;43.526;26.534;2022-12-29T06:07:21;62.72;;;29.27;;
10617;SDS011;5356;43.526;26.534;2022-12-29T06:09:46;53.08;;;23.08;;
10617;SDS011;5356;43.526;26.534;2022-12-29T06:12:12;28.58;;;17.00;;
10617;SDS011;5356;43.526;26.534;2022-12-29T06:14:37;16.92;;;9.60;;
10617;SDS011;5356;43.526;26.534;2022-12-29T06:17:03;17.42;;;8.90;;
10617;SDS011;5356;43.526;26.534;2022-12-29T06:19:28;12.18;;;7.15;;
10617;SDS011;5356;43.526;26.534;2022-12-29T06:21:54;11.98;;;7.00;;
10617;SDS011;5356;43.526;26.534;2022-12-29T06:24:20;12.07;;;6.15;;
10617;SDS011;5356;43.526;26.534;2022-12-29T06:26:45;10.40;;;5.70;;
10617;SDS011;5356;43.526;26.534;2022-12-29T06:29:11;14.02;;;7.35;;
10617;SDS011;5356;43.526;26.534;2022-12-29T06:31:38;15.18;;;7.22;;
10617;SDS011;5356;43.526;26.534;2022-12-29T06:34:03;16.75;;;7.53;;
10617;SDS011;5356;43.526;26.534;2022-12-29T06:36:29;17.17;;;7.18;;
10617;SDS011;5356;43.526;26.534;2022-12-29T06:38:54;19.02;;;8.85;;
10617;SDS011;5356;43.526;26.534;2022-12-29T06:41:20;18.50;;;8.45;;
10617;SDS011;5356;43.526;26.534;2022-12-29T06:43:46;15.45;;;7.28;;
10617;SDS011;5356;43.526;26.534;2022-12-29T06:46:11;16.83;;;8.98;;
10617;SDS011;5356;43.526;26.534;2022-12-29T06:48:37;36.42;;;15.02;;
10617;SDS011;5356;43.526;26.534;2022-12-29T06:51:02;17.25;;;8.75;;
10617;SDS011;5356;43.526;26.534;2022-12-29T06:53:28;16.77;;;10.55;;
10617;SDS011;5356;43.526;26.534;2022-12-29T06:55:53;24.33;;;11.15;;
10617;SDS011;5356;43.526;26.534;2022-12-29T06:58:19;24.50;;;11.30;;
10617;SDS011;5356;43.526;26.534;2022-12-29T07:00:44;27.58;;;11.05;;
10617;SDS011;5356;43.526;26.534;2022-12-29T07:03:13;19.55;;;7.55;;
10617;SDS011;5356;43.526;26.534;2022-12-29T07:05:39;27.50;;;14.07;;
10617;SDS011;5356;43.526;26.534;2022-12-29T07:08:04;32.75;;;15.00;;
10617;SDS011;5356;43.526;26.534;2022-12-29T07:10:32;21.05;;;10.88;;
10617;SDS011;5356;43.526;26.534;2022-12-29T07:12:58;21.77;;;10.20;;
10617;SDS011;5356;43.526;26.534;2022-12-29T07:15:23;14.75;;;7.75;;
10617;SDS011;5356;43.526;26.534;2022-12-29T07:17:49;10.75;;;6.70;;
10617;SDS011;5356;43.526;26.534;2022-12-29T07:20:14;15.27;;;8.40;;
10617;SDS011;5356;43.526;26.534;2022-12-29T07:22:40;14.93;;;8.05;;
10617;SDS011;5356;43.526;26.534;2022-12-29T07:25:06;11.77;;;6.57;;
10617;SDS011;5356;43.526;26.534;2022-12-29T07:27:32;15.38;;;7.50;;
10617;SDS011;5356;43.526;26.534;2022-12-29T07:29:58;15.75;;;7.55;;
10617;SDS011;5356;43.526;26.534;2022-12-29T07:32:23;15.18;;;8.05;;
10617;SDS011;5356;43.526;26.534;2022-12-29T07:34:49;14.43;;;7.15;;
10617;SDS011;5356;43.526;26.534;2022-12-29T07:37:15;13.15;;;5.78;;
10617;SDS011;5356;43.526;26.534;2022-12-29T07:39:40;11.50;;;6.47;;
10617;SDS011;5356;43.526;26.534;2022-12-29T07:42:06;10.07;;;6.28;;
10617;SDS011;5356;43.526;26.534;2022-12-29T07:44:32;15.55;;;5.85;;
10617;SDS011;5356;43.526;26.534;2022-12-29T07:46:57;12.55;;;5.82;;
10617;SDS011;5356;43.526;26.534;2022-12-29T07:49:23;12.88;;;6.35;;
10617;SDS011;5356;43.526;26.534;2022-12-29T07:51:49;12.65;;;6.75;;
10617;SDS011;5356;43.526;26.534;2022-12-29T07:54:14;13.40;;;6.65;;
10617;SDS011;5356;43.526;26.534;2022-12-29T07:56:43;8.90;;;4.80;;
10617;SDS011;5356;43.526;26.534;2022-12-29T07:59:09;17.88;;;7.60;;
10617;SDS011;5356;43.526;26.534;2022-12-29T08:01:34;12.43;;;5.47;;
10617;SDS011;5356;43.526;26.534;2022-12-29T08:03:59;11.35;;;5.70;;
10617;SDS011;5356;43.526;26.534;2022-12-29T08:06:25;16.30;;;7.35;;
10617;SDS011;5356;43.526;26.534;2022-12-29T08:08:50;9.95;;;5.20;;
10617;SDS011;5356;43.526;26.534;2022-12-29T08:11:16;15.80;;;7.47;;
10617;SDS011;5356;43.526;26.534;2022-12-29T08:13:41;25.85;;;11.40;;
10617;SDS011;5356;43.526;26.534;2022-12-29T08:16:07;18.13;;;6.90;;
10617;SDS011;5356;43.526;26.534;2022-12-29T08:18:32;23.25;;;9.85;;
10617;SDS011;5356;43.526;26.534;2022-12-29T08:21:02;17.77;;;8.15;;
10617;SDS011;5356;43.526;26.534;2022-12-29T08:23:31;16.20;;;7.45;;
10617;SDS011;5356;43.526;26.534;2022-12-29T08:26:00;11.35;;;6.50;;
10617;SDS011;5356;43.526;26.534;2022-12-29T08:28:28;12.25;;;5.32;;
10617;SDS011;5356;43.526;26.534;2022-12-29T08:30:54;14.48;;;5.10;;
10617;SDS011;5356;43.526;26.534;2022-12-29T08:33:22;8.05;;;5.00;;
10617;SDS011;5356;43.526;26.534;2022-12-29T08:35:48;10.52;;;4.28;;
10617;SDS011;5356;43.526;26.534;2022-12-29T08:38:14;10.52;;;5.10;;
10617;SDS011;5356;43.526;26.534;2022-12-29T08:40:39;12.02;;;4.40;;
10617;SDS011;5356;43.526;26.534;2022-12-29T08:43:05;11.30;;;4.60;;
10617;SDS011;5356;43.526;26.534;2022-12-29T08:45:33;15.18;;;6.00;;
10617;SDS011;5356;43.526;26.534;2022-12-29T08:47:59;9.10;;;4.75;;
10617;SDS011;5356;43.526;26.534;2022-12-29T08:50:27;10.55;;;5.22;;
10617;SDS011;5356;43.526;26.534;2022-12-29T08:52:52;10.80;;;6.10;;
10617;SDS011;5356;43.526;26.534;2022-12-29T08:55:17;11.68;;;5.35;;
10617;SDS011;5356;43.526;26.534;2022-12-29T08:57:43;12.90;;;6.70;;
10617;SDS011;5356;43.526;26.534;2022-12-29T09:02:46;17.63;;;9.80;;
10617;SDS011;5356;43.526;26.534;2022-12-29T09:05:11;19.58;;;11.20;;
10617;SDS011;5356;43.526;26.534;2022-12-29T09:07:37;21.00;;;10.60;;
10617;SDS011;5356;43.526;26.534;2022-12-29T09:10:02;18.05;;;9.68;;
10617;SDS011;5356;43.526;26.534;2022-12-29T09:12:29;17.98;;;10.70;;
10617;SDS011;5356;43.526;26.534;2022-12-29T09:14:54;20.30;;;9.60;;
10617;SDS011;5356;43.526;26.534;2022-12-29T09:17:20;26.02;;;10.63;;
10617;SDS011;5356;43.526;26.534;2022-12-29T09:23:35;17.70;;;8.35;;
10617;SDS011;5356;43.526;26.534;2022-12-29T09:26:17;19.92;;;9.32;;
10617;SDS011;5356;43.526;26.534;2022-12-29T09:29:29;18.02;;;8.50;;
10617;SDS011;5356;43.526;26.534;2022-12-29T09:31:56;17.05;;;8.90;;
10617;SDS011;5356;43.526;26.534;2022-12-29T09:34:29;14.07;;;6.53;;
10617;SDS011;5356;43.526;26.534;2022-12-29T09:37:18;12.32;;;6.05;;
10617;SDS011;5356;43.526;26.534;2022-12-29T09:39:53;17.55;;;8.48;;
10617;SDS011;5356;43.526;26.534;2022-12-29T09:48:32;8.00;;;4.30;;
10617;SDS011;5356;43.526;26.534;2022-12-29T09:51:18;10.15;;;4.85;;
10617;SDS011;5356;43.526;26.534;2022-12-29T09:54:00;15.55;;;7.13;;
10617;SDS011;5356;43.526;26.534;2022-12-29T09:56:47;26.40;;;8.57;;
10617;SDS011;5356;43.526;26.534;2022-12-29T09:59:43;11.38;;;5.47;;
10617;SDS011;5356;43.526;26.534;2022-12-29T10:02:39;10.65;;;6.13;;
10617;SDS011;5356;43.526;26.534;2022-12-29T10:05:21;14.65;;;6.05;;
10617;SDS011;5356;43.526;26.534;2022-12-29T10:11:16;13.15;;;5.60;;
10617;SDS011;5356;43.526;26.534;2022-12-29T10:17:44;12.70;;;6.55;;
10617;SDS011;5356;43.526;26.534;2022-12-29T10:23:27;11.43;;;5.90;;
10617;SDS011;5356;43.526;26.534;2022-12-29T10:26:21;10.27;;;5.00;;
10617;SDS011;5356;43.526;26.534;2022-12-29T10:29:21;10.40;;;5.10;;
10617;SDS011;5356;43.526;26.534;2022-12-29T10:32:04;11.52;;;5.78;;
10617;SDS011;5356;43.526;26.534;2022-12-29T10:35:23;8.10;;;4.87;;
10617;SDS011;5356;43.526;26.534;2022-12-29T10:44:29;7.05;;;3.25;;
10617;SDS011;5356;43.526;26.534;2022-12-29T10:47:02;23.85;;;7.13;;
10617;SDS011;5356;43.526;26.534;2022-12-29T10:49:44;8.50;;;5.18;;
10617;SDS011;5356;43.526;26.534;2022-12-29T10:52:31;10.15;;;4.32;;
10617;SDS011;5356;43.526;26.534;2022-12-29T10:58:07;7.35;;;4.85;;
10617;SDS011;5356;43.526;26.534;2022-12-29T11:00:40;20.13;;;7.78;;
10617;SDS011;5356;43.526;26.534;2022-12-29T11:09:25;10.80;;;5.75;;
10617;SDS011;5356;43.526;26.534;2022-12-29T11:20:29;11.93;;;5.47;;
10617;SDS011;5356;43.526;26.534;2022-12-29T11:26:33;10.25;;;4.47;;
10617;SDS011;5356;43.526;26.534;2022-12-29T11:29:22;9.85;;;4.85;;
10617;SDS011;5356;43.526;26.534;2022-12-29T11:35:42;5.97;;;4.03;;
10617;SDS011;5356;43.526;26.534;2022-12-29T11:41:21;8.27;;;5.00;;
10617;SDS011;5356;43.526;26.534;2022-12-29T11:44:10;7.13;;;4.10;;
10617;SDS011;5356;43.526;26.534;2022-12-29T11:46:58;16.80;;;4.72;;
10617;SDS011;5356;43.526;26.534;2022-12-29T11:49:40;15.18;;;5.53;;
10617;SDS011;5356;43.526;26.534;2022-12-29T11:52:18;9.77;;;4.10;;
10617;SDS011;5356;43.526;26.534;2022-12-29T11:55:20;4.78;;;3.42;;
10617;SDS011;5356;43.526;26.534;2022-12-29T11:57:49;5.90;;;3.35;;
10617;SDS011;5356;43.526;26.534;2022-12-29T12:00:21;6.35;;;3.63;;
10617;SDS011;5356;43.526;26.534;2022-12-29T12:02:52;6.10;;;3.90;;
10617;SDS011;5356;43.526;26.534;2022-12-29T12:05:35;5.97;;;3.15;;
10617;SDS011;5356;43.526;26.534;2022-12-29T12:08:33;6.93;;;4.10;;
10617;SDS011;5356;43.526;26.534;2022-12-29T12:11:06;6.22;;;3.20;;
10617;SDS011;5356;43.526;26.534;2022-12-29T12:13:58;8.90;;;3.70;;
10617;SDS011;5356;43.526;26.534;2022-12-29T12:16:46;64.68;;;29.42;;
10617;SDS011;5356;43.526;26.534;2022-12-29T12:22:10;18.65;;;9.10;;
10617;SDS011;5356;43.526;26.534;2022-12-29T12:35:14;6.15;;;4.28;;
10617;SDS011;5356;43.526;26.534;2022-12-29T12:38:01;23.10;;;8.10;;
10617;SDS011;5356;43.526;26.534;2022-12-29T12:45:59;29.55;;;10.57;;
10617;SDS011;5356;43.526;26.534;2022-12-29T12:57:13;12.52;;;6.55;;
10617;SDS011;5356;43.526;26.534;2022-12-29T12:59:52;17.02;;;6.32;;
10617;SDS011;5356;43.526;26.534;2022-12-29T13:05:14;5.72;;;3.17;;
10617;SDS011;5356;43.526;26.534;2022-12-29T13:08:13;4.32;;;2.58;;
10617;SDS011;5356;43.526;26.534;2022-12-29T13:14:05;3.47;;;2.50;;
10617;SDS011;5356;43.526;26.534;2022-12-29T13:16:51;5.97;;;3.88;;
10617;SDS011;5356;43.526;26.534;2022-12-29T13:19:26;5.53;;;2.90;;
10617;SDS011;5356;43.526;26.534;2022-12-29T13:22:10;6.25;;;3.83;;
10617;SDS011;5356;43.526;26.534;2022-12-29T13:28:02;8.02;;;5.35;;
10617;SDS011;5356;43.526;26.534;2022-12-29T13:30:32;7.00;;;4.22;;
10617;SDS011;5356;43.526;26.534;2022-12-29T13:36:22;12.73;;;5.75;;
10617;SDS011;5356;43.526;26.534;2022-12-29T13:39:05;5.63;;;4.07;;
10617;SDS011;5356;43.526;26.534;2022-12-29T13:41:53;5.88;;;3.88;;
10617;SDS011;5356;43.526;26.534;2022-12-29T13:44:26;12.77;;;7.57;;
10617;SDS011;5356;43.526;26.534;2022-12-29T13:50:18;11.77;;;6.93;;
10617;SDS011;5356;43.526;26.534;2022-12-29T13:53:17;11.25;;;6.55;;
10617;SDS011;5356;43.526;26.534;2022-12-29T13:56:15;12.00;;;7.50;;
10617;SDS011;5356;43.526;26.534;2022-12-29T13:58:56;28.08;;;14.80;;
10617;SDS011;5356;43.526;26.534;2022-12-29T14:01:43;15.85;;;8.85;;
10617;SDS011;5356;43.526;26.534;2022-12-29T14:04:23;15.65;;;9.15;;
10617;SDS011;5356;43.526;26.534;2022-12-29T14:09:42;29.95;;;15.30;;
10617;SDS011;5356;43.526;26.534;2022-12-29T14:12:20;25.42;;;13.75;;
10617;SDS011;5356;43.526;26.534;2022-12-29T14:14:53;37.92;;;17.13;;
10617;SDS011;5356;43.526;26.534;2022-12-29T14:17:19;64.75;;;26.48;;
10617;SDS011;5356;43.526;26.534;2022-12-29T14:19:46;56.58;;;23.73;;
10617;SDS011;5356;43.526;26.534;2022-12-29T14:22:22;51.35;;;21.05;;
10617;SDS011;5356;43.526;26.534;2022-12-29T14:24:50;73.57;;;26.75;;
10617;SDS011;5356;43.526;26.534;2022-12-29T14:34:45;42.22;;;19.45;;
10617;SDS011;5356;43.526;26.534;2022-12-29T14:37:23;37.92;;;20.08;;
10617;SDS011;5356;43.526;26.534;2022-12-29T14:40:02;38.85;;;19.63;;
10617;SDS011;5356;43.526;26.534;2022-12-29T14:42:28;45.72;;;19.60;;
10617;SDS011;5356;43.526;26.534;2022-12-29T14:49:56;19.58;;;9.82;;
10617;SDS011;5356;43.526;26.534;2022-12-29T14:52:28;17.00;;;9.85;;
10617;SDS011;5356;43.526;26.534;2022-12-29T14:57:59;18.10;;;7.88;;
10617;SDS011;5356;43.526;26.534;2022-12-29T15:00:29;18.27;;;8.82;;
10617;SDS011;5356;43.526;26.534;2022-12-29T15:03:04;32.58;;;14.38;;
10617;SDS011;5356;43.526;26.534;2022-12-29T15:05:34;53.40;;;20.85;;
10617;SDS011;5356;43.526;26.534;2022-12-29T15:08:06;44.80;;;18.88;;
10617;SDS011;5356;43.526;26.534;2022-12-29T15:10:40;33.08;;;17.02;;
10617;SDS011;5356;43.526;26.534;2022-12-29T15:13:22;35.63;;;17.35;;
10617;SDS011;5356;43.526;26.534;2022-12-29T15:15:50;35.22;;;17.52;;
10617;SDS011;5356;43.526;26.534;2022-12-29T15:18:28;37.00;;;17.15;;
10617;SDS011;5356;43.526;26.534;2022-12-29T15:20:59;31.20;;;15.98;;
10617;SDS011;5356;43.526;26.534;2022-12-29T15:23:31;31.85;;;15.77;;
10617;SDS011;5356;43.526;26.534;2022-12-29T15:25:59;31.50;;;15.45;;
10617;SDS011;5356;43.526;26.534;2022-12-29T15:28:36;38.75;;;18.63;;
10617;SDS011;5356;43.526;26.534;2022-12-29T15:31:11;41.38;;;20.73;;
10617;SDS011;5356;43.526;26.534;2022-12-29T15:33:43;48.67;;;22.90;;
10617;SDS011;5356;43.526;26.534;2022-12-29T15:36:13;54.53;;;26.48;;
10617;SDS011;5356;43.526;26.534;2022-12-29T15:38:47;58.35;;;25.20;;
10617;SDS011;5356;43.526;26.534;2022-12-29T15:41:23;49.78;;;25.42;;
10617;SDS011;5356;43.526;26.534;2022-12-29T15:46:39;56.40;;;25.80;;
10617;SDS011;5356;43.526;26.534;2022-12-29T15:49:06;54.75;;;27.35;;
10617;SDS011;5356;43.526;26.534;2022-12-29T15:51:34;48.10;;;24.67;;
10617;SDS011;5356;43.526;26.534;2022-12-29T15:54:03;57.13;;;26.63;;
10617;SDS011;5356;43.526;26.534;2022-12-29T15:56:29;45.72;;;22.88;;
10617;SDS011;5356;43.526;26.534;2022-12-29T15:58:57;54.05;;;26.88;;
10617;SDS011;5356;43.526;26.534;2022-12-29T16:03:53;71.60;;;34.78;;
10617;SDS011;5356;43.526;26.534;2022-12-29T16:09:05;50.45;;;23.65;;
10617;SDS011;5356;43.526;26.534;2022-12-29T16:11:39;46.00;;;17.70;;
10617;SDS011;5356;43.526;26.534;2022-12-29T16:14:29;31.30;;;16.60;;
10617;SDS011;5356;43.526;26.534;2022-12-29T16:19:41;34.45;;;16.25;;
10617;SDS011;5356;43.526;26.534;2022-12-29T16:22:17;59.28;;;25.92;;
10617;SDS011;5356;43.526;26.534;2022-12-29T16:25:18;52.53;;;23.45;;
10617;SDS011;5356;43.526;26.534;2022-12-29T16:27:49;58.20;;;23.40;;
10617;SDS011;5356;43.526;26.534;2022-12-29T16:30:34;57.80;;;25.05;;
10617;SDS011;5356;43.526;26.534;2022-12-29T16:33:00;58.25;;;23.40;;
10617;SDS011;5356;43.526;26.534;2022-12-29T16:38:15;118.15;;;47.50;;
10617;SDS011;5356;43.526;26.534;2022-12-29T16:40:57;141.40;;;54.97;;
10617;SDS011;5356;43.526;26.534;2022-12-29T16:43:30;119.22;;;52.33;;
10617;SDS011;5356;43.526;26.534;2022-12-29T16:46:24;117.97;;;48.30;;
10617;SDS011;5356;43.526;26.534;2022-12-29T16:48:54;88.10;;;34.72;;
10617;SDS011;5356;43.526;26.534;2022-12-29T16:51:23;76.95;;;35.08;;
10617;SDS011;5356;43.526;26.534;2022-12-29T16:53:56;66.18;;;31.23;;
10617;SDS011;5356;43.526;26.534;2022-12-29T16:56:25;74.10;;;32.90;;
10617;SDS011;5356;43.526;26.534;2022-12-29T16:58:58;69.00;;;32.42;;
10617;SDS011;5356;43.526;26.534;2022-12-29T17:01:25;59.85;;;29.42;;
10617;SDS011;5356;43.526;26.534;2022-12-29T17:03:51;61.25;;;26.35;;
10617;SDS011;5356;43.526;26.534;2022-12-29T17:06:31;57.70;;;26.98;;
10617;SDS011;5356;43.526;26.534;2022-12-29T17:08:57;52.05;;;26.33;;
10617;SDS011;5356;43.526;26.534;2022-12-29T17:11:28;49.97;;;26.23;;
10617;SDS011;5356;43.526;26.534;2022-12-29T17:16:43;39.92;;;19.55;;
10617;SDS011;5356;43.526;26.534;2022-12-29T17:19:11;41.78;;;19.88;;
10617;SDS011;5356;43.526;26.534;2022-12-29T17:21:41;38.50;;;19.92;;
10617;SDS011;5356;43.526;26.534;2022-12-29T17:24:17;42.67;;;20.00;;
10617;SDS011;5356;43.526;26.534;2022-12-29T17:26:44;37.58;;;19.15;;
10617;SDS011;5356;43.526;26.534;2022-12-29T17:29:15;40.83;;;22.27;;
10617;SDS011;5356;43.526;26.534;2022-12-29T17:31:50;44.75;;;20.25;;
10617;SDS011;5356;43.526;26.534;2022-12-29T17:34:15;45.75;;;22.65;;
10617;SDS011;5356;43.526;26.534;2022-12-29T17:36:41;48.00;;;23.50;;
10617;SDS011;5356;43.526;26.534;2022-12-29T17:39:07;48.25;;;23.02;;
10617;SDS011;5356;43.526;26.534;2022-12-29T17:41:33;40.65;;;22.20;;
10617;SDS011;5356;43.526;26.534;2022-12-29T17:44:00;52.58;;;22.77;;
10617;SDS011;5356;43.526;26.534;2022-12-29T17:46:26;45.80;;;23.02;;
10617;SDS011;5356;43.526;26.534;2022-12-29T17:48:51;52.05;;;23.73;;
10617;SDS011;5356;43.526;26.534;2022-12-29T17:51:19;37.85;;;18.60;;
10617;SDS011;5356;43.526;26.534;2022-12-29T17:53:45;56.97;;;25.55;;
10617;SDS011;5356;43.526;26.534;2022-12-29T17:56:11;37.08;;;20.02;;
10617;SDS011;5356;43.526;26.534;2022-12-29T17:58:37;41.03;;;22.05;;
10617;SDS011;5356;43.526;26.534;2022-12-29T18:01:02;32.47;;;18.42;;
10617;SDS011;5356;43.526;26.534;2022-12-29T18:03:32;34.38;;;18.10;;
10617;SDS011;5356;43.526;26.534;2022-12-29T18:05:59;47.17;;;23.10;;
10617;SDS011;5356;43.526;26.534;2022-12-29T18:08:25;38.53;;;20.38;;